Hauptseite
METAR-TAF:

METAR-TAF

Flughäfen :

Flughafen Isle of Man

Isle of Man,

Breite: 54-05N, Länge: 004-38W, Höhe: 17 m

Beobachtung

Neuester Wetterbericht von vor 1 Stunde und 3 Minuten, um 06:50 UTC
Wind 12 kt aus Ost
Temperatur 15°C
Luftfeuchtigkeit 63%
Luftdruck 1024 hPa
Sichtweite 10 km oder mehr
keine Wolken unter 1500 m und keine Kumulonimbus oder Gewitterwolken

METAR: EGNS 310650Z 09012KT CAVOK 15/08 Q1024

Zeit: 08:53 (07:53 UTC)


TAF: fehlend

Wetterbeobachtungen und Prognosen von mehr als 4000 Flughäfen (METAR und TAF Bericht).

Die verfügbaren Stationen werden durch gelbe und rote Markierungen auf der Karte dargestellt.

Führen Sie die Maus auf sie, um den Namen der Station zu sehen.

Darauf klicken, um die Beobachtung von Wetterbeobachtungen und Prognosen zu sehen.

Um die Karte zu ändern : klicken Sie auf den grünen Tasten mit einem schwarzen Kreuz Zum Vergrößern, auf den grünen Button mit einem Gedankenstrich zu verkleinern, oder auf die grünen Pfeile für benachbarte Karten.


METAR-TAF: